sensor_id;sensor_type;location;lat;lon;timestamp;P1;durP1;ratioP1;P2;durP2;ratioP2
24325;SDS011;12448;45.532;5.290;2024-03-06T00:02:09;3.50;;;1.42;;
24325;SDS011;12448;45.532;5.290;2024-03-06T00:04:35;3.08;;;1.30;;
24325;SDS011;12448;45.532;5.290;2024-03-06T00:07:01;2.10;;;1.60;;
24325;SDS011;12448;45.532;5.290;2024-03-06T00:09:27;2.17;;;1.40;;
24325;SDS011;12448;45.532;5.290;2024-03-06T00:11:53;2.63;;;1.20;;
24325;SDS011;12448;45.532;5.290;2024-03-06T00:14:19;2.05;;;1.40;;
24325;SDS011;12448;45.532;5.290;2024-03-06T00:16:49;2.15;;;1.30;;
24325;SDS011;12448;45.532;5.290;2024-03-06T00:19:18;4.22;;;1.67;;
24325;SDS011;12448;45.532;5.290;2024-03-06T00:21:45;1.98;;;1.52;;
24325;SDS011;12448;45.532;5.290;2024-03-06T00:24:11;2.78;;;1.52;;
24325;SDS011;12448;45.532;5.290;2024-03-06T00:26:41;2.50;;;1.50;;
24325;SDS011;12448;45.532;5.290;2024-03-06T00:29:10;3.47;;;1.45;;
24325;SDS011;12448;45.532;5.290;2024-03-06T00:31:36;3.15;;;1.65;;
24325;SDS011;12448;45.532;5.290;2024-03-06T00:34:07;1.40;;;1.20;;
24325;SDS011;12448;45.532;5.290;2024-03-06T00:36:33;3.33;;;1.60;;
24325;SDS011;12448;45.532;5.290;2024-03-06T00:38:58;5.10;;;1.85;;
24325;SDS011;12448;45.532;5.290;2024-03-06T00:41:24;3.30;;;2.15;;
24325;SDS011;12448;45.532;5.290;2024-03-06T00:43:50;4.05;;;2.15;;
24325;SDS011;12448;45.532;5.290;2024-03-06T00:46:15;3.17;;;2.10;;
24325;SDS011;12448;45.532;5.290;2024-03-06T00:48:41;5.70;;;2.60;;
24325;SDS011;12448;45.532;5.290;2024-03-06T00:51:07;3.83;;;2.40;;
24325;SDS011;12448;45.532;5.290;2024-03-06T00:53:34;5.57;;;2.70;;
24325;SDS011;12448;45.532;5.290;2024-03-06T00:56:00;4.18;;;2.20;;
24325;SDS011;12448;45.532;5.290;2024-03-06T00:58:26;4.70;;;2.75;;
24325;SDS011;12448;45.532;5.290;2024-03-06T01:00:51;3.95;;;2.63;;
24325;SDS011;12448;45.532;5.290;2024-03-06T01:03:17;3.55;;;2.33;;
24325;SDS011;12448;45.532;5.290;2024-03-06T01:05:43;6.25;;;3.00;;
24325;SDS011;12448;45.532;5.290;2024-03-06T01:08:08;3.20;;;2.30;;
24325;SDS011;12448;45.532;5.290;2024-03-06T01:10:34;5.45;;;2.78;;
24325;SDS011;12448;45.532;5.290;2024-03-06T01:13:00;5.03;;;2.40;;
24325;SDS011;12448;45.532;5.290;2024-03-06T01:15:26;2.72;;;2.22;;
24325;SDS011;12448;45.532;5.290;2024-03-06T01:17:51;6.78;;;2.53;;
24325;SDS011;12448;45.532;5.290;2024-03-06T01:20:17;5.32;;;2.50;;
24325;SDS011;12448;45.532;5.290;2024-03-06T01:22:43;6.55;;;2.40;;
24325;SDS011;12448;45.532;5.290;2024-03-06T01:25:11;4.07;;;2.30;;
24325;SDS011;12448;45.532;5.290;2024-03-06T01:27:36;7.90;;;2.65;;
24325;SDS011;12448;45.532;5.290;2024-03-06T01:30:02;6.95;;;2.67;;
24325;SDS011;12448;45.532;5.290;2024-03-06T01:32:29;5.72;;;2.50;;
24325;SDS011;12448;45.532;5.290;2024-03-06T01:34:55;5.05;;;2.22;;
24325;SDS011;12448;45.532;5.290;2024-03-06T01:37:20;3.60;;;2.05;;
24325;SDS011;12448;45.532;5.290;2024-03-06T01:39:46;3.88;;;1.75;;
24325;SDS011;12448;45.532;5.290;2024-03-06T01:42:12;5.05;;;2.50;;
24325;SDS011;12448;45.532;5.290;2024-03-06T01:44:37;3.60;;;1.95;;
24325;SDS011;12448;45.532;5.290;2024-03-06T01:47:03;5.47;;;2.05;;
24325;SDS011;12448;45.532;5.290;2024-03-06T01:49:28;4.22;;;1.73;;
24325;SDS011;12448;45.532;5.290;2024-03-06T01:51:55;5.15;;;2.05;;
24325;SDS011;12448;45.532;5.290;2024-03-06T01:54:24;5.35;;;2.13;;
24325;SDS011;12448;45.532;5.290;2024-03-06T01:56:51;2.75;;;1.65;;
24325;SDS011;12448;45.532;5.290;2024-03-06T01:59:17;3.60;;;1.95;;
24325;SDS011;12448;45.532;5.290;2024-03-06T02:01:45;4.97;;;1.95;;
24325;SDS011;12448;45.532;5.290;2024-03-06T02:04:12;2.97;;;2.30;;
24325;SDS011;12448;45.532;5.290;2024-03-06T02:06:38;4.32;;;1.75;;
24325;SDS011;12448;45.532;5.290;2024-03-06T02:09:05;5.00;;;2.00;;
24325;SDS011;12448;45.532;5.290;2024-03-06T02:11:32;6.82;;;1.90;;
24325;SDS011;12448;45.532;5.290;2024-03-06T02:13:58;3.63;;;1.77;;
24325;SDS011;12448;45.532;5.290;2024-03-06T02:16:24;2.47;;;1.60;;
24325;SDS011;12448;45.532;5.290;2024-03-06T02:18:51;5.03;;;1.70;;
24325;SDS011;12448;45.532;5.290;2024-03-06T02:21:20;3.97;;;1.85;;
24325;SDS011;12448;45.532;5.290;2024-03-06T02:23:47;3.78;;;1.92;;
24325;SDS011;12448;45.532;5.290;2024-03-06T02:26:12;3.85;;;1.92;;
24325;SDS011;12448;45.532;5.290;2024-03-06T02:28:38;6.25;;;2.08;;
24325;SDS011;12448;45.532;5.290;2024-03-06T02:31:03;3.33;;;1.60;;
24325;SDS011;12448;45.532;5.290;2024-03-06T02:33:31;3.15;;;1.73;;
24325;SDS011;12448;45.532;5.290;2024-03-06T02:35:59;6.35;;;2.00;;
24325;SDS011;12448;45.532;5.290;2024-03-06T02:38:24;3.90;;;1.85;;
24325;SDS011;12448;45.532;5.290;2024-03-06T02:40:50;7.80;;;2.00;;
24325;SDS011;12448;45.532;5.290;2024-03-06T02:43:16;4.25;;;1.65;;
24325;SDS011;12448;45.532;5.290;2024-03-06T02:45:41;4.90;;;1.70;;
24325;SDS011;12448;45.532;5.290;2024-03-06T02:48:07;5.85;;;1.67;;
24325;SDS011;12448;45.532;5.290;2024-03-06T02:50:33;6.25;;;1.63;;
24325;SDS011;12448;45.532;5.290;2024-03-06T02:52:58;3.22;;;1.58;;
24325;SDS011;12448;45.532;5.290;2024-03-06T02:55:24;3.95;;;1.50;;
24325;SDS011;12448;45.532;5.290;2024-03-06T02:57:50;2.28;;;1.40;;
24325;SDS011;12448;45.532;5.290;2024-03-06T03:00:16;2.58;;;1.50;;
24325;SDS011;12448;45.532;5.290;2024-03-06T03:02:41;3.33;;;1.60;;
24325;SDS011;12448;45.532;5.290;2024-03-06T03:05:07;5.93;;;1.58;;
24325;SDS011;12448;45.532;5.290;2024-03-06T03:07:33;7.72;;;1.75;;
24325;SDS011;12448;45.532;5.290;2024-03-06T03:09:59;2.42;;;1.58;;
24325;SDS011;12448;45.532;5.290;2024-03-06T03:12:25;2.25;;;1.60;;
24325;SDS011;12448;45.532;5.290;2024-03-06T03:14:50;6.65;;;1.70;;
24325;SDS011;12448;45.532;5.290;2024-03-06T03:17:18;4.13;;;1.48;;
24325;SDS011;12448;45.532;5.290;2024-03-06T03:19:44;4.88;;;1.63;;
24325;SDS011;12448;45.532;5.290;2024-03-06T03:22:10;2.83;;;1.42;;
24325;SDS011;12448;45.532;5.290;2024-03-06T03:24:35;1.83;;;1.58;;
24325;SDS011;12448;45.532;5.290;2024-03-06T03:27:02;3.13;;;1.50;;
24325;SDS011;12448;45.532;5.290;2024-03-06T03:29:28;5.28;;;1.65;;
24325;SDS011;12448;45.532;5.290;2024-03-06T03:31:54;2.92;;;1.40;;
24325;SDS011;12448;45.532;5.290;2024-03-06T03:34:20;4.97;;;1.50;;
24325;SDS011;12448;45.532;5.290;2024-03-06T03:36:47;3.95;;;1.42;;
24325;SDS011;12448;45.532;5.290;2024-03-06T03:39:14;4.35;;;1.50;;
24325;SDS011;12448;45.532;5.290;2024-03-06T03:41:45;4.60;;;1.48;;
24325;SDS011;12448;45.532;5.290;2024-03-06T03:44:15;2.90;;;1.50;;
24325;SDS011;12448;45.532;5.290;2024-03-06T03:46:41;1.92;;;1.30;;
24325;SDS011;12448;45.532;5.290;2024-03-06T03:49:07;3.78;;;1.50;;
24325;SDS011;12448;45.532;5.290;2024-03-06T03:51:39;4.93;;;1.50;;
24325;SDS011;12448;45.532;5.290;2024-03-06T03:54:05;3.92;;;1.48;;
24325;SDS011;12448;45.532;5.290;2024-03-06T03:56:31;5.57;;;1.65;;
24325;SDS011;12448;45.532;5.290;2024-03-06T03:58:58;1.83;;;1.38;;
24325;SDS011;12448;45.532;5.290;2024-03-06T04:01:24;6.60;;;1.98;;
24325;SDS011;12448;45.532;5.290;2024-03-06T04:03:50;3.65;;;1.60;;
24325;SDS011;12448;45.532;5.290;2024-03-06T04:06:17;6.07;;;1.60;;
24325;SDS011;12448;45.532;5.290;2024-03-06T04:08:42;4.50;;;1.50;;
24325;SDS011;12448;45.532;5.290;2024-03-06T04:11:08;5.63;;;1.50;;
24325;SDS011;12448;45.532;5.290;2024-03-06T04:13:37;3.38;;;1.55;;
24325;SDS011;12448;45.532;5.290;2024-03-06T04:16:03;2.80;;;1.40;;
24325;SDS011;12448;45.532;5.290;2024-03-06T04:18:30;4.80;;;1.30;;
24325;SDS011;12448;45.532;5.290;2024-03-06T04:21:03;4.32;;;1.35;;
24325;SDS011;12448;45.532;5.290;2024-03-06T04:23:30;2.53;;;1.70;;
24325;SDS011;12448;45.532;5.290;2024-03-06T04:25:56;7.22;;;1.65;;
24325;SDS011;12448;45.532;5.290;2024-03-06T04:28:22;5.32;;;1.67;;
24325;SDS011;12448;45.532;5.290;2024-03-06T04:30:47;2.78;;;1.52;;
24325;SDS011;12448;45.532;5.290;2024-03-06T04:33:13;4.97;;;1.50;;
24325;SDS011;12448;45.532;5.290;2024-03-06T04:35:40;4.85;;;1.40;;
24325;SDS011;12448;45.532;5.290;2024-03-06T04:38:06;3.63;;;1.70;;
24325;SDS011;12448;45.532;5.290;2024-03-06T04:40:33;3.28;;;1.10;;
24325;SDS011;12448;45.532;5.290;2024-03-06T04:42:59;2.85;;;1.20;;
24325;SDS011;12448;45.532;5.290;2024-03-06T04:45:28;3.92;;;1.50;;
24325;SDS011;12448;45.532;5.290;2024-03-06T04:47:54;5.30;;;1.67;;
24325;SDS011;12448;45.532;5.290;2024-03-06T04:50:20;3.65;;;1.52;;
24325;SDS011;12448;45.532;5.290;2024-03-06T04:52:46;6.07;;;1.23;;
24325;SDS011;12448;45.532;5.290;2024-03-06T04:55:11;5.18;;;1.50;;
24325;SDS011;12448;45.532;5.290;2024-03-06T04:57:38;4.25;;;1.50;;
24325;SDS011;12448;45.532;5.290;2024-03-06T05:00:05;3.92;;;1.67;;
24325;SDS011;12448;45.532;5.290;2024-03-06T05:02:33;5.00;;;1.88;;
24325;SDS011;12448;45.532;5.290;2024-03-06T05:05:01;8.40;;;1.90;;
24325;SDS011;12448;45.532;5.290;2024-03-06T05:07:28;4.63;;;1.85;;
24325;SDS011;12448;45.532;5.290;2024-03-06T05:09:54;3.53;;;1.63;;
24325;SDS011;12448;45.532;5.290;2024-03-06T05:12:20;5.38;;;2.65;;
24325;SDS011;12448;45.532;5.290;2024-03-06T05:14:45;9.50;;;4.72;;
24325;SDS011;12448;45.532;5.290;2024-03-06T05:17:11;10.18;;;3.58;;
24325;SDS011;12448;45.532;5.290;2024-03-06T05:19:36;10.27;;;4.07;;
24325;SDS011;12448;45.532;5.290;2024-03-06T05:22:02;17.42;;;6.85;;
24325;SDS011;12448;45.532;5.290;2024-03-06T05:24:29;7.68;;;3.33;;
24325;SDS011;12448;45.532;5.290;2024-03-06T05:26:55;3.70;;;1.80;;
24325;SDS011;12448;45.532;5.290;2024-03-06T05:29:20;3.58;;;1.77;;
24325;SDS011;12448;45.532;5.290;2024-03-06T05:31:46;2.80;;;2.00;;
24325;SDS011;12448;45.532;5.290;2024-03-06T05:34:11;5.05;;;2.22;;
24325;SDS011;12448;45.532;5.290;2024-03-06T05:36:37;3.28;;;1.77;;
24325;SDS011;12448;45.532;5.290;2024-03-06T05:39:03;3.00;;;1.70;;
24325;SDS011;12448;45.532;5.290;2024-03-06T05:41:39;6.32;;;2.50;;
24325;SDS011;12448;45.532;5.290;2024-03-06T05:44:06;4.70;;;2.42;;
24325;SDS011;12448;45.532;5.290;2024-03-06T05:46:32;4.95;;;2.47;;
24325;SDS011;12448;45.532;5.290;2024-03-06T05:48:57;4.70;;;2.63;;
24325;SDS011;12448;45.532;5.290;2024-03-06T05:51:23;7.88;;;2.90;;
24325;SDS011;12448;45.532;5.290;2024-03-06T05:53:49;4.35;;;2.00;;
24325;SDS011;12448;45.532;5.290;2024-03-06T05:56:15;3.55;;;1.80;;
24325;SDS011;12448;45.532;5.290;2024-03-06T05:58:43;6.40;;;1.90;;
24325;SDS011;12448;45.532;5.290;2024-03-06T06:01:11;3.90;;;1.88;;
24325;SDS011;12448;45.532;5.290;2024-03-06T06:03:36;6.20;;;1.50;;
24325;SDS011;12448;45.532;5.290;2024-03-06T06:06:03;5.53;;;1.77;;
24325;SDS011;12448;45.532;5.290;2024-03-06T06:08:29;4.53;;;2.05;;
24325;SDS011;12448;45.532;5.290;2024-03-06T06:10:56;4.68;;;2.50;;
24325;SDS011;12448;45.532;5.290;2024-03-06T06:13:21;3.90;;;2.10;;
24325;SDS011;12448;45.532;5.290;2024-03-06T06:15:47;8.32;;;3.97;;
24325;SDS011;12448;45.532;5.290;2024-03-06T06:18:13;9.80;;;4.00;;
24325;SDS011;12448;45.532;5.290;2024-03-06T06:20:40;26.25;;;14.70;;
24325;SDS011;12448;45.532;5.290;2024-03-06T06:23:06;20.25;;;9.93;;
24325;SDS011;12448;45.532;5.290;2024-03-06T06:25:32;23.73;;;11.80;;
24325;SDS011;12448;45.532;5.290;2024-03-06T06:27:58;15.10;;;7.78;;
24325;SDS011;12448;45.532;5.290;2024-03-06T06:30:24;17.20;;;7.18;;
24325;SDS011;12448;45.532;5.290;2024-03-06T06:32:49;14.73;;;6.13;;
24325;SDS011;12448;45.532;5.290;2024-03-06T06:35:15;16.27;;;8.38;;
24325;SDS011;12448;45.532;5.290;2024-03-06T06:37:41;16.60;;;9.15;;
24325;SDS011;12448;45.532;5.290;2024-03-06T06:40:07;28.65;;;15.55;;
24325;SDS011;12448;45.532;5.290;2024-03-06T06:42:34;13.35;;;4.90;;
24325;SDS011;12448;45.532;5.290;2024-03-06T06:45:00;9.40;;;4.90;;
24325;SDS011;12448;45.532;5.290;2024-03-06T06:47:27;13.57;;;5.70;;
24325;SDS011;12448;45.532;5.290;2024-03-06T06:49:53;14.13;;;6.32;;
24325;SDS011;12448;45.532;5.290;2024-03-06T06:52:18;12.75;;;6.28;;
24325;SDS011;12448;45.532;5.290;2024-03-06T06:54:44;13.45;;;6.18;;
24325;SDS011;12448;45.532;5.290;2024-03-06T06:57:10;14.32;;;7.47;;
24325;SDS011;12448;45.532;5.290;2024-03-06T06:59:36;8.27;;;4.35;;
24325;SDS011;12448;45.532;5.290;2024-03-06T07:02:02;10.57;;;3.90;;
24325;SDS011;12448;45.532;5.290;2024-03-06T07:04:27;9.98;;;4.57;;
24325;SDS011;12448;45.532;5.290;2024-03-06T07:06:53;5.70;;;3.22;;
24325;SDS011;12448;45.532;5.290;2024-03-06T07:09:19;8.25;;;3.70;;
24325;SDS011;12448;45.532;5.290;2024-03-06T07:11:45;6.65;;;2.90;;
24325;SDS011;12448;45.532;5.290;2024-03-06T07:14:13;11.65;;;5.10;;
24325;SDS011;12448;45.532;5.290;2024-03-06T07:16:42;15.20;;;6.68;;
24325;SDS011;12448;45.532;5.290;2024-03-06T07:19:08;10.25;;;4.93;;
24325;SDS011;12448;45.532;5.290;2024-03-06T07:21:34;22.60;;;10.80;;
24325;SDS011;12448;45.532;5.290;2024-03-06T07:24:00;68.15;;;34.13;;
24325;SDS011;12448;45.532;5.290;2024-03-06T07:26:25;90.28;;;48.30;;
24325;SDS011;12448;45.532;5.290;2024-03-06T07:28:54;70.75;;;36.45;;
24325;SDS011;12448;45.532;5.290;2024-03-06T07:31:20;96.13;;;50.58;;
24325;SDS011;12448;45.532;5.290;2024-03-06T07:33:45;57.30;;;29.80;;
24325;SDS011;12448;45.532;5.290;2024-03-06T07:36:11;40.20;;;21.77;;
24325;SDS011;12448;45.532;5.290;2024-03-06T07:38:36;19.00;;;9.23;;
24325;SDS011;12448;45.532;5.290;2024-03-06T07:41:02;10.68;;;5.07;;
24325;SDS011;12448;45.532;5.290;2024-03-06T07:43:28;5.10;;;2.58;;
24325;SDS011;12448;45.532;5.290;2024-03-06T07:45:53;6.00;;;2.33;;
24325;SDS011;12448;45.532;5.290;2024-03-06T07:48:19;8.20;;;2.28;;
24325;SDS011;12448;45.532;5.290;2024-03-06T07:50:45;18.90;;;10.90;;
24325;SDS011;12448;45.532;5.290;2024-03-06T07:53:10;7.95;;;5.22;;
24325;SDS011;12448;45.532;5.290;2024-03-06T07:55:36;7.80;;;3.83;;
24325;SDS011;12448;45.532;5.290;2024-03-06T07:58:03;6.90;;;1.90;;
24325;SDS011;12448;45.532;5.290;2024-03-06T08:00:29;7.78;;;2.10;;
24325;SDS011;12448;45.532;5.290;2024-03-06T08:02:56;3.63;;;1.50;;
24325;SDS011;12448;45.532;5.290;2024-03-06T08:05:22;6.38;;;1.75;;
24325;SDS011;12448;45.532;5.290;2024-03-06T08:07:47;4.65;;;1.52;;
24325;SDS011;12448;45.532;5.290;2024-03-06T08:10:13;8.35;;;1.50;;
24325;SDS011;12448;45.532;5.290;2024-03-06T08:12:40;5.82;;;1.60;;
24325;SDS011;12448;45.532;5.290;2024-03-06T08:15:07;5.15;;;1.80;;
24325;SDS011;12448;45.532;5.290;2024-03-06T08:17:40;3.40;;;1.35;;
24325;SDS011;12448;45.532;5.290;2024-03-06T08:20:09;3.78;;;1.50;;
24325;SDS011;12448;45.532;5.290;2024-03-06T08:22:39;3.72;;;1.73;;
24325;SDS011;12448;45.532;5.290;2024-03-06T08:25:09;4.28;;;1.80;;
24325;SDS011;12448;45.532;5.290;2024-03-06T08:27:37;3.63;;;1.70;;
24325;SDS011;12448;45.532;5.290;2024-03-06T08:30:04;4.63;;;2.65;;
24325;SDS011;12448;45.532;5.290;2024-03-06T08:32:31;4.40;;;2.10;;
24325;SDS011;12448;45.532;5.290;2024-03-06T08:35:10;9.55;;;3.25;;
24325;SDS011;12448;45.532;5.290;2024-03-06T08:37:38;12.07;;;5.00;;
24325;SDS011;12448;45.532;5.290;2024-03-06T08:40:04;10.80;;;3.70;;
24325;SDS011;12448;45.532;5.290;2024-03-06T08:42:32;8.25;;;4.00;;
24325;SDS011;12448;45.532;5.290;2024-03-06T08:44:58;8.90;;;4.00;;
24325;SDS011;12448;45.532;5.290;2024-03-06T08:47:24;9.18;;;3.45;;
24325;SDS011;12448;45.532;5.290;2024-03-06T08:49:49;7.68;;;2.80;;
24325;SDS011;12448;45.532;5.290;2024-03-06T08:52:15;5.22;;;2.05;;
24325;SDS011;12448;45.532;5.290;2024-03-06T08:54:41;12.98;;;2.88;;
24325;SDS011;12448;45.532;5.290;2024-03-06T08:57:06;5.35;;;2.45;;
24325;SDS011;12448;45.532;5.290;2024-03-06T08:59:33;5.82;;;2.55;;
24325;SDS011;12448;45.532;5.290;2024-03-06T09:02:11;6.65;;;2.97;;
24325;SDS011;12448;45.532;5.290;2024-03-06T09:04:39;6.57;;;3.45;;
24325;SDS011;12448;45.532;5.290;2024-03-06T09:07:05;6.03;;;3.00;;
24325;SDS011;12448;45.532;5.290;2024-03-06T09:09:31;7.57;;;3.88;;
24325;SDS011;12448;45.532;5.290;2024-03-06T09:11:59;4.88;;;2.30;;
24325;SDS011;12448;45.532;5.290;2024-03-06T09:14:30;6.47;;;2.90;;
24325;SDS011;12448;45.532;5.290;2024-03-06T09:16:56;5.80;;;2.97;;
24325;SDS011;12448;45.532;5.290;2024-03-06T09:19:22;10.25;;;4.82;;
24325;SDS011;12448;45.532;5.290;2024-03-06T09:21:48;12.23;;;3.33;;
24325;SDS011;12448;45.532;5.290;2024-03-06T09:24:13;8.68;;;3.15;;
24325;SDS011;12448;45.532;5.290;2024-03-06T09:26:39;12.68;;;4.80;;
24325;SDS011;12448;45.532;5.290;2024-03-06T09:29:05;3.80;;;2.20;;
24325;SDS011;12448;45.532;5.290;2024-03-06T09:31:30;13.15;;;2.42;;
24325;SDS011;12448;45.532;5.290;2024-03-06T09:33:56;11.00;;;2.17;;
24325;SDS011;12448;45.532;5.290;2024-03-06T09:36:23;5.90;;;2.10;;
24325;SDS011;12448;45.532;5.290;2024-03-06T09:38:49;10.48;;;2.25;;
24325;SDS011;12448;45.532;5.290;2024-03-06T09:41:14;4.43;;;2.03;;
24325;SDS011;12448;45.532;5.290;2024-03-06T09:43:40;4.97;;;2.25;;
24325;SDS011;12448;45.532;5.290;2024-03-06T09:46:08;7.05;;;2.08;;
24325;SDS011;12448;45.532;5.290;2024-03-06T09:48:34;5.75;;;2.00;;
24325;SDS011;12448;45.532;5.290;2024-03-06T09:51:01;6.85;;;2.00;;
24325;SDS011;12448;45.532;5.290;2024-03-06T09:53:27;7.28;;;1.85;;
24325;SDS011;12448;45.532;5.290;2024-03-06T09:56:02;5.32;;;2.08;;
24325;SDS011;12448;45.532;5.290;2024-03-06T09:58:28;5.93;;;2.08;;
24325;SDS011;12448;45.532;5.290;2024-03-06T10:00:53;7.78;;;2.70;;
24325;SDS011;12448;45.532;5.290;2024-03-06T10:03:21;8.60;;;2.47;;
24325;SDS011;12448;45.532;5.290;2024-03-06T10:05:47;8.73;;;2.80;;
24325;SDS011;12448;45.532;5.290;2024-03-06T10:08:12;7.57;;;2.50;;
24325;SDS011;12448;45.532;5.290;2024-03-06T10:10:41;12.88;;;2.75;;
24325;SDS011;12448;45.532;5.290;2024-03-06T10:13:08;7.20;;;2.42;;
24325;SDS011;12448;45.532;5.290;2024-03-06T10:15:33;6.88;;;2.35;;
24325;SDS011;12448;45.532;5.290;2024-03-06T10:20:37;7.68;;;2.25;;
24325;SDS011;12448;45.532;5.290;2024-03-06T10:23:03;6.25;;;2.33;;
24325;SDS011;12448;45.532;5.290;2024-03-06T10:25:29;7.32;;;2.53;;
24325;SDS011;12448;45.532;5.290;2024-03-06T10:30:40;9.88;;;2.30;;
24325;SDS011;12448;45.532;5.290;2024-03-06T10:33:14;7.85;;;2.15;;
24325;SDS011;12448;45.532;5.290;2024-03-06T10:35:41;6.50;;;1.70;;
24325;SDS011;12448;45.532;5.290;2024-03-06T10:38:08;9.07;;;2.90;;
24325;SDS011;12448;45.532;5.290;2024-03-06T10:40:36;11.00;;;4.00;;
24325;SDS011;12448;45.532;5.290;2024-03-06T10:43:03;10.50;;;3.20;;
24325;SDS011;12448;45.532;5.290;2024-03-06T10:48:14;13.30;;;4.85;;
24325;SDS011;12448;45.532;5.290;2024-03-06T10:50:41;7.18;;;2.10;;
24325;SDS011;12448;45.532;5.290;2024-03-06T10:53:09;11.55;;;3.20;;
24325;SDS011;12448;45.532;5.290;2024-03-06T10:55:36;10.85;;;3.03;;
24325;SDS011;12448;45.532;5.290;2024-03-06T10:58:06;7.85;;;3.20;;
24325;SDS011;12448;45.532;5.290;2024-03-06T11:00:42;6.32;;;2.63;;
24325;SDS011;12448;45.532;5.290;2024-03-06T11:03:15;5.22;;;1.90;;
24325;SDS011;12448;45.532;5.290;2024-03-06T11:05:42;5.38;;;2.20;;
24325;SDS011;12448;45.532;5.290;2024-03-06T11:08:11;7.25;;;1.95;;
24325;SDS011;12448;45.532;5.290;2024-03-06T11:10:39;6.10;;;2.10;;
24325;SDS011;12448;45.532;5.290;2024-03-06T11:13:25;4.22;;;2.10;;
24325;SDS011;12448;45.532;5.290;2024-03-06T11:15:52;5.15;;;2.47;;
24325;SDS011;12448;45.532;5.290;2024-03-06T11:23:27;2.88;;;1.23;;
24325;SDS011;12448;45.532;5.290;2024-03-06T11:28:27;11.98;;;2.72;;
24325;SDS011;12448;45.532;5.290;2024-03-06T11:31:01;6.45;;;1.75;;
24325;SDS011;12448;45.532;5.290;2024-03-06T11:33:40;6.30;;;1.50;;
24325;SDS011;12448;45.532;5.290;2024-03-06T11:36:14;7.00;;;1.88;;
24325;SDS011;12448;45.532;5.290;2024-03-06T11:41:28;8.55;;;3.00;;
24325;SDS011;12448;45.532;5.290;2024-03-06T11:44:29;9.05;;;1.50;;
24325;SDS011;12448;45.532;5.290;2024-03-06T11:49:31;6.03;;;2.03;;
24325;SDS011;12448;45.532;5.290;2024-03-06T11:52:06;9.70;;;1.90;;
24325;SDS011;12448;45.532;5.290;2024-03-06T11:54:36;7.90;;;1.83;;
24325;SDS011;12448;45.532;5.290;2024-03-06T11:57:03;7.85;;;1.90;;
24325;SDS011;12448;45.532;5.290;2024-03-06T11:59:35;6.75;;;1.80;;
24325;SDS011;12448;45.532;5.290;2024-03-06T12:02:03;6.40;;;1.33;;
24325;SDS011;12448;45.532;5.290;2024-03-06T12:04:31;6.90;;;2.28;;
24325;SDS011;12448;45.532;5.290;2024-03-06T12:06:59;5.07;;;1.52;;
24325;SDS011;12448;45.532;5.290;2024-03-06T12:09:29;5.40;;;1.70;;
24325;SDS011;12448;45.532;5.290;2024-03-06T12:11:55;8.80;;;2.30;;
24325;SDS011;12448;45.532;5.290;2024-03-06T12:14:22;7.35;;;2.03;;
24325;SDS011;12448;45.532;5.290;2024-03-06T12:16:57;8.48;;;1.92;;
24325;SDS011;12448;45.532;5.290;2024-03-06T12:19:28;10.30;;;2.55;;
24325;SDS011;12448;45.532;5.290;2024-03-06T12:21:59;11.10;;;4.40;;
24325;SDS011;12448;45.532;5.290;2024-03-06T12:24:25;6.50;;;1.98;;
24325;SDS011;12448;45.532;5.290;2024-03-06T12:27:01;5.93;;;1.48;;
24325;SDS011;12448;45.532;5.290;2024-03-06T12:29:32;9.27;;;3.00;;
24325;SDS011;12448;45.532;5.290;2024-03-06T12:32:04;6.82;;;1.60;;
24325;SDS011;12448;45.532;5.290;2024-03-06T12:34:29;6.78;;;1.60;;
24325;SDS011;12448;45.532;5.290;2024-03-06T12:36:56;8.10;;;2.10;;
24325;SDS011;12448;45.532;5.290;2024-03-06T12:39:23;7.22;;;1.77;;
24325;SDS011;12448;45.532;5.290;2024-03-06T12:41:52;6.53;;;1.77;;
24325;SDS011;12448;45.532;5.290;2024-03-06T12:44:20;7.88;;;1.67;;
24325;SDS011;12448;45.532;5.290;2024-03-06T12:46:47;5.07;;;1.50;;
24325;SDS011;12448;45.532;5.290;2024-03-06T12:49:13;4.13;;;1.83;;
24325;SDS011;12448;45.532;5.290;2024-03-06T12:51:43;5.88;;;1.88;;
24325;SDS011;12448;45.532;5.290;2024-03-06T12:54:09;6.72;;;2.05;;
24325;SDS011;12448;45.532;5.290;2024-03-06T12:56:35;6.72;;;1.90;;
24325;SDS011;12448;45.532;5.290;2024-03-06T12:59:01;3.20;;;1.20;;
24325;SDS011;12448;45.532;5.290;2024-03-06T13:01:26;12.35;;;1.67;;
24325;SDS011;12448;45.532;5.290;2024-03-06T13:03:52;4.50;;;1.60;;
24325;SDS011;12448;45.532;5.290;2024-03-06T13:06:17;4.00;;;1.48;;
24325;SDS011;12448;45.532;5.290;2024-03-06T13:08:43;3.55;;;1.40;;
24325;SDS011;12448;45.532;5.290;2024-03-06T13:11:09;3.88;;;1.63;;
24325;SDS011;12448;45.532;5.290;2024-03-06T13:13:35;4.35;;;1.10;;
24325;SDS011;12448;45.532;5.290;2024-03-06T13:16:01;5.72;;;1.20;;
24325;SDS011;12448;45.532;5.290;2024-03-06T13:18:26;4.72;;;1.30;;
24325;SDS011;12448;45.532;5.290;2024-03-06T13:20:53;4.18;;;1.20;;
24325;SDS011;12448;45.532;5.290;2024-03-06T13:23:19;5.93;;;1.60;;
24325;SDS011;12448;45.532;5.290;2024-03-06T13:25:44;5.88;;;1.80;;
24325;SDS011;12448;45.532;5.290;2024-03-06T13:28:11;7.68;;;1.45;;
24325;SDS011;12448;45.532;5.290;2024-03-06T13:30:37;2.13;;;1.10;;
24325;SDS011;12448;45.532;5.290;2024-03-06T13:33:03;3.15;;;1.15;;
24325;SDS011;12448;45.532;5.290;2024-03-06T13:35:45;4.35;;;1.55;;
24325;SDS011;12448;45.532;5.290;2024-03-06T13:38:11;4.65;;;1.30;;
24325;SDS011;12448;45.532;5.290;2024-03-06T13:40:37;8.43;;;1.30;;
24325;SDS011;12448;45.532;5.290;2024-03-06T13:43:04;3.45;;;1.20;;
24325;SDS011;12448;45.532;5.290;2024-03-06T13:45:31;4.07;;;1.33;;
24325;SDS011;12448;45.532;5.290;2024-03-06T13:47:57;4.45;;;1.05;;
24325;SDS011;12448;45.532;5.290;2024-03-06T13:50:23;5.32;;;1.73;;
24325;SDS011;12448;45.532;5.290;2024-03-06T13:52:53;1.10;;;0.73;;
24325;SDS011;12448;45.532;5.290;2024-03-06T13:55:18;2.70;;;1.10;;
24325;SDS011;12448;45.532;5.290;2024-03-06T13:57:44;4.45;;;0.93;;
24325;SDS011;12448;45.532;5.290;2024-03-06T14:00:12;6.07;;;1.15;;
24325;SDS011;12448;45.532;5.290;2024-03-06T14:02:42;5.38;;;1.20;;
24325;SDS011;12448;45.532;5.290;2024-03-06T14:05:11;3.47;;;1.20;;
24325;SDS011;12448;45.532;5.290;2024-03-06T14:07:38;5.07;;;1.00;;
24325;SDS011;12448;45.532;5.290;2024-03-06T14:10:05;5.10;;;0.90;;
24325;SDS011;12448;45.532;5.290;2024-03-06T14:12:33;2.63;;;0.98;;
24325;SDS011;12448;45.532;5.290;2024-03-06T14:15:00;5.28;;;1.58;;
24325;SDS011;12448;45.532;5.290;2024-03-06T14:17:26;4.20;;;1.00;;
24325;SDS011;12448;45.532;5.290;2024-03-06T14:19:51;3.45;;;1.17;;
24325;SDS011;12448;45.532;5.290;2024-03-06T14:22:17;3.58;;;1.33;;
24325;SDS011;12448;45.532;5.290;2024-03-06T14:24:42;2.55;;;0.93;;
24325;SDS011;12448;45.532;5.290;2024-03-06T14:27:08;3.45;;;1.20;;
24325;SDS011;12448;45.532;5.290;2024-03-06T14:29:34;2.78;;;1.33;;
24325;SDS011;12448;45.532;5.290;2024-03-06T14:32:00;2.55;;;1.13;;
24325;SDS011;12448;45.532;5.290;2024-03-06T14:34:25;3.20;;;0.82;;
24325;SDS011;12448;45.532;5.290;2024-03-06T14:36:51;4.85;;;1.38;;
24325;SDS011;12448;45.532;5.290;2024-03-06T14:39:18;2.63;;;0.85;;
24325;SDS011;12448;45.532;5.290;2024-03-06T14:41:46;5.75;;;1.08;;
24325;SDS011;12448;45.532;5.290;2024-03-06T14:44:12;1.48;;;0.90;;
24325;SDS011;12448;45.532;5.290;2024-03-06T14:46:39;2.13;;;1.02;;
24325;SDS011;12448;45.532;5.290;2024-03-06T14:49:06;4.43;;;0.90;;
24325;SDS011;12448;45.532;5.290;2024-03-06T14:51:32;3.17;;;1.05;;
24325;SDS011;12448;45.532;5.290;2024-03-06T14:53:58;4.50;;;1.23;;
24325;SDS011;12448;45.532;5.290;2024-03-06T14:56:24;5.75;;;1.20;;
24325;SDS011;12448;45.532;5.290;2024-03-06T14:58:50;5.45;;;1.70;;
24325;SDS011;12448;45.532;5.290;2024-03-06T15:01:16;6.25;;;1.13;;
24325;SDS011;12448;45.532;5.290;2024-03-06T15:03:42;4.13;;;1.40;;
24325;SDS011;12448;45.532;5.290;2024-03-06T15:06:08;5.95;;;1.13;;